»·PEaware :: AAL717 KDFW-KDEN

AAL717 :: KDFW-KDEN

FLIGHT INFORMATION

Flight Status: Arrived
Operator:
American Airlines
More flights by this operator :: More flights under this callsign
Pilot: Ty S. (2873)
Aircraft: BOEING 737-800
(B738)
More flights by this aircraft type
Origin: KDFW Dallas-Ft Worth Intl
United States
Destination: KDEN Denver Intl
United States
More flights between these airports :: More routes between these airports
Route:
File this flight plan on PilotEdge
Remarks:
Altitude:
(Current/Filed)
0ft
Speed:
(Current/Filed)
0kts
Departed: 15-Apr-16 06:05 PM
Arrived: 15-Apr-16 07:43 PM
Distance/Time
Traveled:
557nm/1:38
Distance/Time
To Go:
Arrived

Flight Plot

Page will automatically refresh every two minutes.


Map Options




Map Legend


Flown Route
Filed Route
Departure Airport
Arrival Airport
Navaid (VOR, NDB)
Fix

Horizontal Profiles

Position Reports

Time Latitude Longitude Heading Altitude Ground
Speed
15-Apr-16 17:38 32.896401 -97.035107 280 615ft 0kts
15-Apr-16 17:39 32.896401 -97.035107 280 615ft 0kts
15-Apr-16 17:40 32.896401 -97.035107 280 615ft 0kts
15-Apr-16 17:41 32.896401 -97.035107 280 615ft 0kts
15-Apr-16 17:42 32.896401 -97.035107 280 615ft 0kts
15-Apr-16 17:43 32.896401 -97.035107 280 615ft 0kts
15-Apr-16 17:44 32.896401 -97.035107 280 615ft 0kts
15-Apr-16 17:45 32.896401 -97.035107 280 615ft 0kts
15-Apr-16 17:46 32.896401 -97.035107 280 615ft 0kts
15-Apr-16 17:47 32.896401 -97.035107 280 615ft 0kts
15-Apr-16 17:48 32.896375 -97.034942 281 615ft 4kts
15-Apr-16 17:49 32.896163 -97.034548 10 615ft 0kts
15-Apr-16 17:50 32.896163 -97.034548 10 615ft 0kts
15-Apr-16 17:51 32.896319 -97.034479 30 615ft 7kts
15-Apr-16 17:52 32.898170 -97.032031 1 615ft 20kts
15-Apr-16 17:53 32.904804 -97.032004 0 615ft 21kts
15-Apr-16 17:54 32.912218 -97.031969 1 615ft 26kts
15-Apr-16 17:55 32.915610 -97.030837 93 615ft 16kts
15-Apr-16 17:56 32.902495 -97.029842 179 616ft 155kts
15-Apr-16 17:57 32.852521 -97.023750 163 2254ft 208kts
15-Apr-16 17:58 32.791525 -97.033664 227 3991ft 270kts
15-Apr-16 17:59 32.749948 -97.104443 229 7204ft 262kts
15-Apr-16 18:00 32.725280 -97.183626 279 9953ft 284kts
15-Apr-16 18:01 32.755235 -97.278330 290 11295ft 347kts
15-Apr-16 18:02 32.785755 -97.385297 285 14415ft 341kts
15-Apr-16 18:03 32.813080 -97.493490 278 16861ft 348kts
15-Apr-16 18:04 32.826947 -97.608217 294 19112ft 359kts
15-Apr-16 18:05 32.905587 -97.683320 325 21044ft 380kts
15-Apr-16 18:06 32.982804 -97.735969 311 22625ft 382kts
15-Apr-16 18:07 33.033236 -97.846167 291 24274ft 385kts
15-Apr-16 18:08 33.076607 -97.965070 290 25953ft 393kts
15-Apr-16 18:09 33.119709 -98.083609 291 27464ft 401kts
15-Apr-16 18:10 33.167124 -98.205640 291 28894ft 407kts
15-Apr-16 18:11 33.212875 -98.327416 290 30817ft 397kts
15-Apr-16 18:12 33.256730 -98.446291 290 32470ft 388kts
15-Apr-16 18:13 33.299642 -98.563675 290 33871ft 383kts
15-Apr-16 18:14 33.341581 -98.678387 290 35034ft 381kts
15-Apr-16 18:15 33.384790 -98.794057 290 35778ft 382kts
15-Apr-16 18:16 33.427626 -98.910427 289 35828ft 381kts
15-Apr-16 18:17 33.469970 -99.026902 289 35822ft 382kts
15-Apr-16 18:18 33.512966 -99.146016 289 35816ft 396kts
15-Apr-16 18:19 33.558654 -99.273409 289 35823ft 399kts
15-Apr-16 18:20 33.602156 -99.395939 289 35822ft 400kts
15-Apr-16 18:21 33.667048 -99.505877 305 35823ft 411kts
15-Apr-16 18:22 33.743728 -99.607301 306 35822ft 412kts
15-Apr-16 18:23 33.819397 -99.708427 306 35822ft 411kts
15-Apr-16 18:24 33.895333 -99.811287 305 35822ft 411kts
15-Apr-16 18:25 33.970633 -99.914360 304 35816ft 411kts
15-Apr-16 18:26 34.046087 -100.018048 304 35798ft 413kts
15-Apr-16 18:27 34.120393 -100.120360 304 35796ft 411kts
15-Apr-16 18:28 34.194880 -100.223907 304 35793ft 410kts
15-Apr-16 18:29 34.269972 -100.328339 303 35794ft 413kts
15-Apr-16 18:30 34.344229 -100.431955 304 35795ft 405kts
15-Apr-16 18:31 34.417581 -100.534597 305 35795ft 400kts
15-Apr-16 18:32 34.489870 -100.636013 305 35792ft 399kts
15-Apr-16 18:33 34.561456 -100.735657 305 35795ft 398kts
15-Apr-16 18:34 34.633947 -100.837423 305 35795ft 398kts
15-Apr-16 18:35 34.706243 -100.939555 305 35795ft 398kts
15-Apr-16 18:36 34.778171 -101.041571 304 35788ft 400kts
15-Apr-16 18:37 34.850770 -101.144593 302 35768ft 407kts
15-Apr-16 18:38 34.923606 -101.248438 302 35747ft 409kts
15-Apr-16 18:39 34.997218 -101.353856 302 35742ft 410kts
15-Apr-16 18:40 35.070554 -101.459321 303 35741ft 409kts
15-Apr-16 18:41 35.141839 -101.562522 302 35740ft 409kts
15-Apr-16 18:42 35.214057 -101.667262 302 35740ft 409kts
15-Apr-16 18:43 35.316341 -101.738222 329 35739ft 442kts
15-Apr-16 18:44 35.431122 -101.788428 331 35740ft 442kts
15-Apr-16 18:45 35.527150 -101.831361 330 35742ft 441kts
15-Apr-16 18:46 35.641100 -101.883544 331 35742ft 441kts
15-Apr-16 18:47 35.755601 -101.936577 331 35735ft 441kts
15-Apr-16 18:48 35.870474 -101.990092 331 35735ft 440kts
15-Apr-16 18:49 35.984497 -102.043423 331 35735ft 440kts
15-Apr-16 18:50 36.098791 -102.097057 330 35729ft 440kts
15-Apr-16 18:51 36.212402 -102.150638 330 35719ft 441kts
15-Apr-16 18:52 36.326567 -102.204661 330 35712ft 441kts
15-Apr-16 18:53 36.441269 -102.259052 330 35708ft 441kts
15-Apr-16 18:54 36.556141 -102.313612 331 35706ft 449kts
15-Apr-16 18:55 36.673900 -102.369874 332 35708ft 456kts
15-Apr-16 18:56 36.792651 -102.426819 334 35713ft 459kts
15-Apr-16 18:57 36.911545 -102.483968 334 35747ft 457kts
15-Apr-16 18:58 37.030008 -102.541067 334 35746ft 457kts
15-Apr-16 18:59 37.147475 -102.597910 334 35746ft 457kts
15-Apr-16 19:00 37.261328 -102.653205 334 35746ft 457kts
15-Apr-16 19:01 37.379742 -102.710100 333 35746ft 456kts
15-Apr-16 19:02 37.497804 -102.768508 333 35747ft 456kts
15-Apr-16 19:03 37.620572 -102.812708 342 35789ft 462kts
15-Apr-16 19:04 37.744891 -102.849248 341 35745ft 463kts
15-Apr-16 19:05 37.868429 -102.887577 341 35715ft 463kts
15-Apr-16 19:06 37.992221 -102.926647 341 35714ft 463kts
15-Apr-16 19:07 38.113564 -102.965230 341 35714ft 463kts
15-Apr-16 19:08 38.237523 -103.004850 341 35720ft 462kts
15-Apr-16 19:09 38.361496 -103.044717 341 35729ft 461kts
15-Apr-16 19:10 38.485103 -103.084919 341 35738ft 459kts
15-Apr-16 19:11 38.585647 -103.164821 308 35266ft 449kts
15-Apr-16 19:12 38.666817 -103.280580 307 32977ft 441kts
15-Apr-16 19:13 38.749639 -103.399509 309 30660ft 455kts
15-Apr-16 19:14 38.834647 -103.516974 309 28436ft 444kts
15-Apr-16 19:15 38.915984 -103.631216 308 26357ft 429kts
15-Apr-16 19:16 38.993102 -103.741197 307 24433ft 416kts
15-Apr-16 19:17 39.068640 -103.849359 307 22630ft 403kts
15-Apr-16 19:18 39.140987 -103.951893 308 21016ft 394kts
15-Apr-16 19:19 39.213623 -104.055382 307 19591ft 381kts
15-Apr-16 19:20 39.269502 -104.161725 283 18009ft 371kts
15-Apr-16 19:21 39.299430 -104.287680 283 15806ft 349kts
15-Apr-16 19:22 39.322280 -104.396833 284 14647ft 288kts
15-Apr-16 19:23 39.340824 -104.480090 286 13587ft 266kts
15-Apr-16 19:24 39.361321 -104.570463 295 12244ft 256kts
15-Apr-16 19:25 39.412139 -104.633616 331 11438ft 256kts
15-Apr-16 19:26 39.480060 -104.646335 3 10537ft 242kts
15-Apr-16 19:27 39.545848 -104.645773 4 9668ft 233kts
15-Apr-16 19:28 39.609583 -104.644621 4 8844ft 228kts
15-Apr-16 19:29 39.671935 -104.643562 4 8020ft 220kts
15-Apr-16 19:30 39.723272 -104.643026 4 7350ft 148kts
15-Apr-16 19:31 39.766846 -104.642796 2 6770ft 161kts
15-Apr-16 19:32 39.809330 -104.642160 3 5905ft 142kts
15-Apr-16 19:33 39.845195 -104.641537 0 5440ft 81kts
15-Apr-16 19:34 39.853430 -104.643156 334 5440ft 18kts
15-Apr-16 19:35 39.856646 -104.646381 271 5440ft 21kts
15-Apr-16 19:36 39.856665 -104.654653 272 5440ft 25kts
15-Apr-16 19:37 39.856700 -104.657994 270 5440ft 0kts
15-Apr-16 19:38 39.856712 -104.660924 269 5440ft 21kts
15-Apr-16 19:39 39.855889 -104.668696 249 5440ft 30kts
15-Apr-16 19:40 39.818949 -104.641902 3 5713ft 138kts
15-Apr-16 19:41 39.837099 -104.641655 3 5441ft 131kts
15-Apr-16 19:42 39.854500 -104.671226 180 5440ft 0kts
15-Apr-16 19:43 39.854500 -104.671226 180 5440ft 0kts
15-Apr-16 19:44 39.854500 -104.671226 180 5440ft 0kts
15-Apr-16 19:45 39.854500 -104.671226 180 5440ft 0kts
15-Apr-16 19:46 39.854500 -104.671226 180 5440ft 0kts
15-Apr-16 19:47 39.854500 -104.671226 180 5440ft 0kts
15-Apr-16 19:48 39.854500 -104.671226 180 5440ft 0kts

Navigation Log

Ident Type
1. KDFW Airport
2. KDEN Airport